Tiempo atmosférico en la estación meteorológica de Cervera De Pisuerga, Palencia (1140 m.)

Fecha
DESCASC
Temp. máxima en grados centígrados (hora)
DESCASC
Temp. mínima en grados centígrados (hora)
DESCASC
Temp. media en grados centígrados
DESCASC
Racha de viento máxima en m/sg (hora)
DESCASC
Velocidad máxima media en intervalos de 10 minutos(hora)
DESCASC
Precipitaciones diarias en mm
DESCASC
Precipitaciones de 00:00 a 06:00 en mm
DESCASC
Precipitaciones de 06:00 a 12:00 en mm
DESCASC
Precipitaciones de 12:00 a 18:00 en mm
DESCASC
Precipitaciones de 18:00 a 24:00 en mm
DESCASC
14-12-2017 12.2 (13:30) 3.9 (23:50) 8 9.72 (13:00) 4.72 (13:00) 2.6 1 1.6 0 0
13-12-2017 9.8 (15:00) -4 (05:30) 2.9 10 (19:20) 3.89 (15:50) 0 0 0 0 0
12-12-2017 7 (14:50) -4.1 (07:40) 1.5 8.61 (15:50) 4.17 (15:30) 0 0 0 0 0
11-12-2017 7.2 (00:10) -2.8 (22:20) 2.2 35.28 (00:10) 12.78 (00:20) 9.2 9 0 0 0.2
10-12-2017 8.2 (14:50) 5.6 (00:00) 6.9 32.78 (21:00) 16.39 (22:50) 65.6 0 3.4 27.8 34.4
09-12-2017 6.8 (23:59) -1.6 (-00:0) 2.6 10 (22:40) 5 (23:00) 1.6 0 0 1.4 0.2
08-12-2017 5.9 (14:30) -1.4 (-00:0) 2.3 5.83 (02:00) 1.94 (01:50) 1 0 0.6 0.4 0
07-12-2017 5.4 (15:10) -3.2 (-00:0) 1.1 5.28 (19:50) 3.06 (10:40) 0.8 0 0 0.2 0.6
06-12-2017 6.3 (12:10) -3.4 (-00:0) 1.5 5.28 (09:50) 2.78 (08:10) 0 0 0 0 0
05-12-2017 9.6 (16:30) -4.2 (-00:0) 2.7 6.39 (05:30) 3.33 (05:40) 2.2 0 0.2 2 0
04-12-2017 8.7 (12:40) -2.9 (-00:0) 2.9 5.56 (04:00) 3.06 (04:00) 5.4 0.4 0.8 4 0.2
03-12-2017 4.5 (15:20) -2 (-00:0) 1.3 9.17 (12:00) 4.17 (05:00) 7.8 1.8 1.8 3.2 1
02-12-2017 1.2 (13:20) -2.8 (-00:0) -0.8 11.39 (13:50) 4.44 (00:10) 6 1.6 1.4 1.2 1.8
01-12-2017 -0.3 (09:20) -2.9 (-00:0) -1.6 13.33 (20:10) 5.83 (20:10) 2.2 0 0.4 0 1.8
30-11-2017 5.6 (15:10) -2.8 (-00:0) 1.4 8.89 (05:40) 4.17 (10:50) 0 0 0 0 0
29-11-2017 5.9 (13:30) -2.7 (-00:0) 1.6 10.28 (15:00) 5.83 (15:00) 0 0 0 0 0
28-11-2017 6.8 (14:40) -4.3 (-00:0) 1.3 5.83 (23:59) 2.5 (13:40) -- -- -- -- 0
27-11-2017 13 (16:20) -4 (-00:0) 4.5 6.11 (15:10) 3.61 (15:00) -- -- -- -- --
26-11-2017 9.5 (14:50) -2.9 (-00:0) 3.3 8.33 (00:20) 3.61 (00:50) -- -- -- -- --
25-11-2017 7.7 (00:00) -1.2 (-00:0) 3.2 9.72 (13:00) 4.72 (08:30) -- -- -- -- --
24-11-2017 11.8 (13:50) 6.4 (00:00) 9.1 12.5 (00:50) 5.83 (01:00) -- -- -- -- --
23-11-2017 14.5 (14:40) 6.6 (00:00) 10.5 21.11 (00:50) 11.11 (00:20) 0 0 0 0 0
22-11-2017 14.9 (12:20) 2.6 (00:00) 8.7 21.11 (23:00) 11.67 (23:59) 0 0 0 0 0
21-11-2017 17.9 (15:10) 2.1 (00:00) 10 8.33 (13:20) 4.72 (13:20) 0 0 0 0 0
20-11-2017 18.7 (13:50) 1.6 (00:00) 10.2 6.67 (14:00) 4.72 (19:40) 0 0 0 0 0
19-11-2017 16.7 (15:20) 1.2 (00:00) 9 5.56 (19:00) 4.44 (19:00) 0 0 0 0 0
18-11-2017 15.6 (14:30) 2 (00:00) 8.8 5.83 (01:50) 3.89 (19:00) 0 0 0 0 0
17-11-2017 17.3 (14:40) 3.9 (00:00) 10.6 6.94 (11:40) 4.44 (10:00) 0 0 0 0 0

Gráficas

Temp. máximas Temp. mínimas Temp. medias Precipitaciones Rachas de viento máximas Velocidades máximas media en intervalos de 10 minutos

Datos horarios

Fecha y hora oficial Temperatura (ºC) Velocidad del viento (km/h) Dirección del viento Racha (km/h) Dirección de racha Precipitación (mm) Presión (hPa) Tendencia (hPa) Humedad (%)
2017-12-16 23:00:00 -0.1 16 Norte 35 Norte 0 895.5 1.3 83
2017-12-16 22:00:00 -0.2 4 Norte 24 Norte 0 895.3 1.5 88
2017-12-16 21:00:00 0 12 Norte 24 Norte 0 894.6 1.8 83
2017-12-16 20:00:00 -0.1 10 Norte 22 Norte 0 894.2 1.9 83
2017-12-16 19:00:00 -0.1 8 Norte 22 Noroeste 0 893.8 2.2 87
2017-12-16 18:00:00 0.2 14 Norte 27 Norte 0 892.8 1.5 83
2017-12-16 17:00:00 1.2 6 Norte 23 Norte 0 892.3 0.9 74
2017-12-16 16:00:00 3.3 10 Norte 28 Norte 0 891.6 0.4 68
2017-12-16 15:00:00 2.6 14 Norte 26 Noroeste 0 891.3 0.1 67
2017-12-16 14:00:00 1.2 5 Noroeste 21 Oeste 0 891.4 1 89
2017-12-16 13:00:00 0.8 7 Noroeste 19 Oeste 0 891.2 1.7 88
2017-12-16 12:00:00 1.1 3 Norte 23 Oeste 0 891.2 2.4 84
2017-12-16 11:00:00 0 6 Noroeste 18 Oeste 0 890.4 1.9 86
2017-12-16 10:00:00 -1.4 5 Oeste 18 Oeste 0 889.5 1.9 92
2017-12-16 09:00:00 -2.1 3 Noroeste 17 Sudoeste 0 888.8 1.6 93
2017-12-16 08:00:00 -2.6 5 Noroeste 17 Oeste 0 888.5 1.8 92
2017-12-16 07:00:00 -2.7 6 Oeste 18 Oeste 0 887.6 1 92
2017-12-16 06:00:00 -2.1 2 Noroeste 16 Oeste 0 887.2 0.8 90
2017-12-16 05:00:00 -1.9 5 Oeste 18 Oeste 0 886.7 0.8 89
2017-12-16 04:00:00 -2.2 5 Noroeste 17 Sudoeste 0 886.6 0.9 90
2017-12-16 03:00:00 -1.6 4 Oeste 19 Oeste 0 886.4 0.8 91
2017-12-16 02:00:00 -1.5 6 Noroeste 18 Oeste 0 885.9 0.9 93
2017-12-16 01:00:00 -1.9 4 Sudoeste 20 Oeste 0 885.7 1 94
2017-12-16 00:00:00 -2.1 4 Norte 18 Oeste 0 885.6 1.4 93
2017-12-15 23:00:00 -1.7 10 Sur 19 Sudoeste 0 885 1.3 93
2017-12-15 22:00:00 -0.8 3 Oeste 18 Oeste 0 884.7 1.7 92
2017-12-15 21:00:00 -0.5 4 Norte 14 Nordeste 0 884.2 1.6 91
2017-12-15 20:00:00 -0.6 3 Nordeste 14 Norte 0 883.7 1.9 85
2017-12-15 19:00:00 -0.3 3 Norte 16 Nordeste 0 883 1.6 85
2017-12-15 18:00:00 2.3 8 Norte 15 Noroeste 0 882.6 1.5 62
2017-12-15 17:00:00 5.8 4 Oeste 18 Oeste 0 881.8 0.6 48
2017-12-15 16:00:00 5 3 Este 19 Norte 0 881.4 -0.2 51
2017-12-15 15:00:00 5.8 7 Nordeste 24 Sur 0 881.1 -0.8 45
2017-12-15 14:00:00 6.1 9 Sudeste 27 Sur 0 881.2 -0.5 60
2017-12-15 13:00:00 5.3 4 Este 14 Este 0 881.6 0.5 60
2017-12-15 12:00:00 5.2 6 Sur 22 Sur 0 881.9 1.1 67
2017-12-15 11:00:00 2.8 4 Sudeste 21 Sur 0 881.7 1.2 82
2017-12-15 10:00:00 1.5 4 Nordeste 15 Norte 0 881.1 1 84
2017-12-15 09:00:00 -0.2 6 Nordeste 18 Norte 0 880.8 1 88
2017-12-15 08:00:00 0.9 8 Norte 19 Norte 0 880.5 0.3 84
2017-12-15 07:00:00 1 5 Nordeste 26 Oeste 0 880.1 -0.4 71
2017-12-15 06:00:00 1.6 5 Oeste 24 Oeste 0 879.8 -1.3 63
2017-12-15 05:00:00 1.5 6 Noroeste 16 Oeste 0 880.2 -1.6 68
2017-12-15 04:00:00 1.4 4 Este 30 Sur 0 880.5 -1.5 75
2017-12-15 03:00:00 2.7 11 Sudoeste 30 Oeste 0 881.1 -0.9 70
2017-12-15 02:00:00 2.7 8 Sudoeste 31 Oeste 0 881.8 -0.3 66
2017-12-15 01:00:00 3.7 12 Sudoeste 32 Sudoeste 0 882 -0.2 61
2017-12-15 00:00:00 4.5 15 Sudoeste 30 Oeste 0 882 -0.1 61
2017-12-14 23:00:00 4.6 7 Sudoeste 19 Oeste 0 882.1 -0.1 82
2017-12-14 22:00:00 6.3 9 Sudoeste 20 Oeste 0 882.2 -0.2 81
2017-12-14 21:00:00 7.1 9 Sudoeste 19 Oeste 0 882.1 -0.8 79
2017-12-14 20:00:00 8 8 Oeste 28 Oeste 0 882.2 -1.4 77
2017-12-14 19:00:00 8.3 13 Oeste 22 Oeste 0 882.4 -1.6 77
2017-12-14 18:00:00 9 9 Oeste 20 Oeste 0 882.9 -1.7 74
2017-12-14 17:00:00 9.7 3 Norte 24 Oeste 0 883.6 -1.6 72
2017-12-14 16:00:00 10.2 10 Oeste 29 Oeste 0 884 -2.1 68
2017-12-14 15:00:00 10.3 9 Oeste 27 Sudoeste 0 884.6 -2.2 70
2017-12-14 14:00:00 10.3 12 Sudoeste 35 Sudoeste 0 885.2 -1.8 72
2017-12-14 13:00:00 11.3 17 Sudoeste 35 Sur 0 886.1 -0.9 70
2017-12-14 12:00:00 8.9 6 Norte 14 Oeste 0 886.8 -0.5 95
2017-12-14 11:00:00 4.8 0 Calma 12 Oeste 0 887 -0.5 94
2017-12-14 10:00:00 4.5 3 Oeste 15 Sudoeste 0.2 887 -0.1 94
2017-12-14 09:00:00 4.5 5 Este 16 Oeste 0.6 887.3 0.1 94
2017-12-14 08:00:00 4.2 6 Oeste 17 Oeste 0.6 887.5 0.1 94
2017-12-14 07:00:00 4.3 4 Oeste 15 Oeste 0.2 887.1 -1.2 94
2017-12-14 06:00:00 4.4 3 Oeste 15 Nordeste 0.2 887.2 -1.3 94
2017-12-14 05:00:00 4.2 5 Nordeste 11 Oeste 0.2 887.4 -1.6 94
2017-12-14 04:00:00 4.4 4 Nordeste 16 Nordeste 0.2 888.3 -1.3 94
2017-12-14 03:00:00 4.3 5 Este 18 Nordeste 0.2 888.5 -1.3 93
2017-12-14 02:00:00 4.5 6 Norte 15 Norte 0.2 889 -0.9 92
2017-12-14 01:00:00 5.1 6 Sudoeste 17 Sudoeste 0 889.6 -0.4 91
2017-12-14 00:00:00 5 8 Sudoeste 32 Sur 0 889.8 -0.3 91
2017-12-13 23:00:00 5.1 13 Sudoeste 32 Sur 0 889.9 -0.3 91
2017-12-13 22:00:00 5.1 12 Sudoeste 30 Sudoeste 0 890 0 90
2017-12-13 21:00:00 5.3 6 Sudoeste 16 Oeste 0 890.1 0 88
2017-12-13 20:00:00 5.3 6 Este 36 Sur 0 890.2 0.3 87
2017-12-13 19:00:00 5.4 7 Oeste 17 Oeste 0 890 0.1 84
2017-12-13 18:00:00 5.6 9 Oeste 19 Noroeste 0 890.1 0.6 81
2017-12-13 17:00:00 6.4 10 Oeste 30 Oeste 0 889.9 -0.1 72
2017-12-13 16:00:00 7.9 14 Sudoeste 28 Oeste 0 889.9 -0.6 64
2017-12-13 15:00:00 9.6 6 Este 15 Sur 0 889.5 -1.5 57
2017-12-13 14:00:00 7.7 4 Este 12 Noroeste 0 890 -0.8 66
2017-12-13 13:00:00 5.7 5 Nordeste 11 Oeste 0 890.5 -0.3 76
2017-12-13 12:00:00 3.7 4 Nordeste 17 Sudoeste 0 891 0.1 93
2017-12-13 11:00:00 0.1 6 Sudoeste 17 Sudoeste 0 890.8 0.1 95
2017-12-13 10:00:00 -1 5 Norte 17 Sudoeste 0 890.8 0.7 95
2017-12-13 09:00:00 -2.4 4 Sudoeste 17 Oeste 0 890.9 0.9 95
2017-12-13 08:00:00 -2.9 4 Sudoeste 16 Oeste 0 890.7 0.4 95
2017-12-13 07:00:00 -3.1 5 Oeste 16 Oeste 0 890.1 -0.3 95
2017-12-13 06:00:00 -3.6 4 Norte 17 Oeste 0 890 -0.2 94
2017-12-13 05:00:00 -3.6 4 Este 14 Sur 0 890.3 0.2 93
2017-12-13 04:00:00 -3.1 6 Nordeste 14 Sur 0 890.4 0.4 92
2017-12-13 03:00:00 -2.6 6 Nordeste 17 Sudoeste 0 890.2 0.1 90
2017-12-13 02:00:00 -2.2 13 Sur 17 Sudoeste 0 890.1 0.6 87
2017-12-13 01:00:00 -1.8 2 Noroeste 17 Sudoeste 0 890 0.7 87
2017-12-13 00:00:00 -1.9 7 Sudoeste 16 Sudoeste 0 890.1 1.4 86
2017-12-12 23:00:00 -2.1 4 Nordeste 11 Sudoeste 0 889.5 0.9 86
2017-12-12 22:00:00 -1.8 2 Noroeste 17 Sudoeste 0 889.3 1 84
2017-12-12 21:00:00 -1.1 5 Norte 9 Sudoeste 0 888.7 1.2 81
2017-12-12 20:00:00 -0.7 0 Calma 17 Sudoeste 0 888.6 1.7 77
2017-12-12 19:00:00 -0.1 4 Oeste 24 Oeste 0 888.3 2.2 73
2017-12-12 18:00:00 0.9 8 Oeste 22 Oeste 0 887.5 1.7 70
2017-12-12 17:00:00 2.1 13 Oeste 30 Oeste 0 886.9 1.1 63
2017-12-12 16:00:00 3.4 13 Oeste 31 Oeste 0 886.1 0.4 56
2017-12-12 15:00:00 6.6 10 Sudoeste 26 Sudoeste 0 885.8 0.5 47
2017-12-12 14:00:00 6.2 9 Sur 24 Sur 0 885.8 1 60
2017-12-12 13:00:00 5.5 13 Sur 23 Sur 0 885.7 1.9 63
2017-12-12 12:00:00 3.2 6 Sudoeste 19 Oeste 0 885.3 2.2 73
2017-12-12 11:00:00 0.7 8 Oeste 18 Oeste 0 884.8 2.3 75
2017-12-12 10:00:00 -1.9 7 Oeste 18 Oeste 0 883.8 1.9 84
2017-12-12 09:00:00 -3.7 4 Oeste 16 Sur 0 883.1 2.1 88
2017-12-12 08:00:00 -3.3 8 Noroeste 19 Oeste 0 882.5 2.4 87
2017-12-12 07:00:00 -3.5 4 Noroeste 18 Oeste 0 881.9 2.5 88
2017-12-12 06:00:00 -3.4 5 Noroeste 19 Oeste 0 881 2.2 87
2017-12-12 05:00:00 -3.5 6 Noroeste 18 Oeste 0 880.1 2.1 85
2017-12-12 04:00:00 -3.3 4 Noroeste 16 Oeste 0 879.4 1.9 85
2017-12-12 03:00:00 -3.9 5 Oeste 18 Sudoeste 0 878.8 1.6 86
2017-12-12 02:00:00 -3.5 7 Oeste 18 Oeste 0 878 2.2 86
2017-12-12 01:00:00 -3.2 5 Oeste 17 Oeste 0 877.5 3.4 84
2017-12-12 00:00:00 -1.9 8 Norte 41 Norte 0 877.2 3.9 76
2017-12-11 23:00:00 -2 13 Noroeste 27 Noroeste 0.2 875.8 3.8 74
2017-12-11 22:00:00 -2.4 17 Oeste 34 Oeste 0 874.1 3.4 93
2017-12-11 21:00:00 -1.8 9 Oeste 33 Noroeste 0 873.3 4.2 81
2017-12-11 20:00:00 -1.6 8 Norte 24 Norte 0 872 4.5 76
2017-12-11 19:00:00 -0.6 9 Norte 22 Noroeste 0 870.7 4.7 71
2017-12-11 18:00:00 0.6 12 Norte 23 Norte 0 869.1 3.8 65
2017-12-11 17:00:00 2.1 7 Noroeste 28 Oeste 0 867.5 2.9 80
2017-12-11 16:00:00 4.6 11 Oeste 30 Oeste 0 866 1.8 65
2017-12-11 15:00:00 5 15 Oeste 31 Oeste 0 865.3 1.4 70
2017-12-11 14:00:00 4.9 15 Sudoeste 32 Sudoeste 0 864.6 1.5 76
2017-12-11 13:00:00 3.8 15 Sudoeste 36 Sudoeste 0 864.2 2.3 76
2017-12-11 12:00:00 3.5 19 Sudoeste 32 Sudoeste 0 863.9 2.8 76
2017-12-11 11:00:00 2.6 9 Sur 22 Sur 0 863.1 2.6 87
2017-12-11 10:00:00 0.9 10 Sudoeste 22 Sudoeste 0 861.9 2.3 92
2017-12-11 09:00:00 -0.2 6 Sudoeste 22 Sur 0 861.1 2.5 94
2017-12-11 08:00:00 0.1 9 Sudoeste 27 Oeste 0 860.5 2.1 94
2017-12-11 07:00:00 0.4 12 Oeste 26 Oeste 0 859.6 2.1 95
2017-12-11 06:00:00 0.6 10 Oeste 32 Oeste 0.2 858.6 1.4 95
2017-12-11 05:00:00 1.4 13 Oeste 63 Sudoeste 0.4 858.4 1.7 94
2017-12-11 04:00:00 1.8 28 Sudoeste 61 Sudoeste 0.2 857.5 1 95
2017-12-11 03:00:00 2.2 30 Sudoeste 54 Sudoeste 0.4 857.2 2.1 95
2017-12-11 02:00:00 3 19 Sudoeste 48 Sudoeste 3.2 856.7 -0.8 94
2017-12-11 01:00:00 4.3 26 Oeste 127 Sur 4.6 856.5 -3.6 93
2017-12-11 00:00:00 7.1 48 Sudoeste 94 Sur 8.6 855.1 -7.4 95
2017-12-10 23:00:00 7 59 Sur 114 Sur 6 857.5 -7 94
2017-12-10 22:00:00 6.7 47 Sudoeste 105 Sur 5 860.1 -6.2 94
2017-12-10 21:00:00 6.9 45 Sudoeste 118 Sur 5.8 862.5 -5.5 93
2017-12-10 20:00:00 7.4 44 Sudoeste 94 Sur 4.8 864.5 -5.7 90
2017-12-10 19:00:00 7.6 39 Sudoeste 75 Sudoeste 4.2 866.3 -4 91
2017-12-10 18:00:00 7.8 35 Sudoeste 89 Sudoeste 5.4 868 -3.9 90
2017-12-10 17:00:00 8.1 35 Sudoeste 80 Sudoeste 5.4 870.2 -3.4 90
2017-12-10 16:00:00 8.1 37 Sudoeste 73 Sudoeste 5 870.3 -5.7 91
2017-12-10 15:00:00 8.1 36 Sudoeste 84 Sudoeste 4.6 871.9 -6.4 90
2017-12-10 14:00:00 8 36 Sudoeste 72 Sudoeste 4 873.6 -6.2 90
2017-12-10 13:00:00 7.7 30 Sudoeste 68 Sudoeste 3.4 876 -4.7 90
2017-12-10 12:00:00 7.6 18 Sudoeste 47 Sur 1.8 878.3 -3.7 89
2017-12-10 11:00:00 6.9 17 Sudoeste 40 Sudoeste 1 879.8 -3 90
2017-12-10 10:00:00 6 11 Sudoeste 39 Sur 0.4 880.7 -2.2 90
2017-12-10 09:00:00 5.6 11 Sudoeste 39 Sudoeste 0.2 882 -1.5 89
2017-12-10 08:00:00 5.6 13 Sudoeste 54 Oeste 0 882.8 -1.6 88
2017-12-10 07:00:00 6.2 26 Sudoeste 51 Sudoeste 0 882.9 -2.2 86
2017-12-10 06:00:00 6 21 Sudoeste 48 Sudoeste 0 883.5 -2.4 86
2017-12-10 05:00:00 6.1 19 Sudoeste 50 Sudoeste 0 884.4 -2.2 86
2017-12-10 04:00:00 6.4 24 Oeste 55 Oeste 0 885.1 -2.2 86
2017-12-10 03:00:00 6.4 19 Oeste 39 Oeste 0 885.9 -2 86
2017-12-10 02:00:00 6.3 14 Sudoeste 34 Oeste 0 886.6 -1.1 87
2017-12-10 01:00:00 6.4 13 Oeste 28 Sudoeste 0 887.3 -1 87
2017-12-10 00:00:00 6.8 13 Sudoeste 28 Sudoeste 0 887.9 -0.4 89
2017-12-09 23:00:00 6.4 18 Sudoeste 36 Sur 0 887.7 -0.8 93
2017-12-09 22:00:00 5.6 10 Sudoeste 21 Oeste 0 888.3 -0.7 94
2017-12-09 21:00:00 4.9 12 Sudoeste 28 Sudoeste 0 888.3 -0.5 94
2017-12-09 20:00:00 3.8 5 Sudoeste 14 Oeste 0 888.5 -0.7 95
2017-12-09 19:00:00 3.2 4 Sudoeste 23 Sur 0.2 889 -0.1 94
2017-12-09 18:00:00 3.1 4 Nordeste 13 Sur 0.2 888.8 -1.7 94
2017-12-09 17:00:00 3.2 2 Este 13 Oeste 0 889.2 -1.9 92
2017-12-09 16:00:00 3.8 7 Nordeste 12 Nordeste 0.6 889.1 -2.8 90
2017-12-09 15:00:00 3.9 2 Sudoeste 15 Sudoeste 0.2 890.5 -2.3 86
2017-12-09 14:00:00 3.3 4 Este 8 Nordeste 0.2 891.1 -1.9 85
2017-12-09 13:00:00 3.9 3 Este 17 Sudoeste 0.2 891.9 -1.1 80
2017-12-09 12:00:00 2.8 2 Este 8 Sudeste 0 892.8 -0.4 87
2017-12-09 11:00:00 1.7 2 Nordeste 17 Oeste 0 893 -0.1 94
2017-12-09 10:00:00 -0.2 4 Noroeste 16 Oeste 0 893 -0.1 95
2017-12-09 09:00:00 -1.6 2 Nordeste 6 Nordeste 0 893.2 -0.2 95
2017-12-09 08:00:00 -0.8 5 Sudoeste 19 Oeste 0 893.1 -0.4 95
2017-12-09 07:00:00 -0.2 4 Noroeste 16 Oeste 0 893.1 -0.8 95
2017-12-09 06:00:00 -0.9 5 Oeste 18 Oeste 0 893.4 -0.6 95
2017-12-09 05:00:00 -0.6 4 Noroeste 18 Oeste 0 893.5 -0.9 95
2017-12-09 04:00:00 0 3 Oeste 7 Noroeste 0 893.9 -0.8 95
2017-12-09 03:00:00 0.5 3 Noroeste 10 Oeste 0 894 -0.8 94
2017-12-09 02:00:00 1.3 3 Oeste 11 Oeste 0 894.4 -0.5 94
2017-12-09 01:00:00 1.4 6 Norte 11 Oeste 0 894.7 -0.1 93
2017-12-09 00:00:00 2 5 Noroeste 12 Oeste 0 894.8 0.1 93
2017-12-08 23:00:00 2.3 2 Oeste 14 Oeste 0 894.9 0.3 94
2017-12-08 22:00:00 2.4 6 Noroeste 15 Oeste 0 894.8 0.3 95
2017-12-08 21:00:00 2.5 2 Noroeste 11 Oeste 0 894.7 0.1 95
2017-12-08 20:00:00 2.5 2 Este 10 Sur 0 894.6 0.2 94
2017-12-08 19:00:00 2.8 3 Sur 11 Oeste 0 894.5 0.3 94
2017-12-08 18:00:00 3.1 4 Norte 10 Sudoeste 0.2 894.6 0.3 93
2017-12-08 17:00:00 3.9 3 Este 12 Sur 0 894.4 -0.4 91
2017-12-08 16:00:00 4.9 5 Este 13 Sur 0 894.2 -1.2 88
2017-12-08 15:00:00 5.2 5 Sudeste 12 Sur 0 894.3 -1.4 87
2017-12-08 14:00:00 5.3 3 Sudeste 7 Noroeste 0 894.8 -0.9 92
2017-12-08 13:00:00 4 3 Sudoeste 16 Sudoeste 0.2 895.4 0.3 94
2017-12-08 12:00:00 2.9 2 Este 9 Nordeste 0.2 895.7 0.8 95
2017-12-08 11:00:00 2.7 4 Sudeste 14 Oeste 0.2 895.7 1.1 95
2017-12-08 10:00:00 2.3 5 Oeste 9 Sur 0 895.1 0.5 95
2017-12-08 09:00:00 0.5 4 Nordeste 12 Oeste 0 894.9 0.3 96
2017-12-08 08:00:00 1.8 7 Noroeste 12 Oeste 0 894.6 -0.1 96
2017-12-08 07:00:00 0.5 2 Sudoeste 17 Sudoeste 0.2 894.6 -0.2 96
2017-12-08 06:00:00 0.3 4 Oeste 16 Sudoeste 0 894.6 -0.2 95
2017-12-08 05:00:00 0.1 2 Norte 7 Oeste 0 894.7 -0.2 95
2017-12-08 04:00:00 -0.1 4 Oeste 15 Oeste 0 894.8 -0.5 95
2017-12-08 03:00:00 -0.3 4 Nordeste 13 Sudoeste 0 894.8 -0.8 95
2017-12-08 02:00:00 -1.2 5 Sudoeste 21 Oeste 0 894.9 -1 95
2017-12-08 01:00:00 -1.1 6 Sudoeste 17 Sudoeste 0 895.3 -0.4 95
2017-12-08 00:00:00 -0.5 4 Noroeste 15 Oeste 0 895.6 -0.1 95
2017-12-07 23:00:00 0.1 2 Oeste 16 Sur 0 895.9 0.2 94
2017-12-07 22:00:00 0.3 2 Nordeste 9 Nordeste 0 895.7 0.1 94
2017-12-07 21:00:00 0.7 4 Nordeste 11 Noroeste 0 895.7 -0.3 93
2017-12-07 20:00:00 0.7 3 Oeste 19 Sudoeste 0 895.7 -0.3 93
2017-12-07 19:00:00 0.9 2 Noroeste 16 Sudoeste 0.6 895.6 0 91
2017-12-07 18:00:00 1.1 2 Sur 17 Sudoeste 0.2 896 0.3 87
2017-12-07 17:00:00 1.7 3 Este 17 Sudoeste 0 896 -0.2 83
2017-12-07 16:00:00 2.3 6 Este 14 Sudeste 0 895.6 -1.1 78
2017-12-07 15:00:00 5.3 4 Este 11 Sudeste 0 895.7 -1.6 65
2017-12-07 14:00:00 4.7 5 Sudeste 16 Sur 0 896.2 -1.3 64
2017-12-07 13:00:00 2.8 4 Este 14 Sudoeste 0 896.7 -0.7 72
2017-12-07 12:00:00 3.4 5 Este 13 Nordeste 0 897.3 0.1 68
2017-12-07 11:00:00 2.6 6 Sudeste 15 Sur 0 897.5 0.9 69
2017-12-07 10:00:00 -1.3 5 Nordeste 14 Sur 0 897.4 0.9 84
2017-12-07 09:00:00 -2.5 7 Sudeste 14 Sudoeste 0 897.2 0.5 88
2017-12-07 08:00:00 -2.1 4 Sudoeste 16 Oeste 0 896.6 -0.2 86
2017-12-07 07:00:00 -2.1 5 Sudoeste 16 Sudoeste 0 896.5 -0.5 87
2017-12-07 06:00:00 -2.3 5 Nordeste 17 Oeste 0 896.7 -0.5 87
2017-12-07 05:00:00 -2.3 4 Noroeste 15 Oeste 0 896.8 -0.6 84
2017-12-07 04:00:00 -2.2 4 Noroeste 17 Oeste 0 897 -0.8 82
2017-12-07 03:00:00 -2.6 4 Oeste 15 Sudoeste 0 897.2 -0.7 86
2017-12-07 02:00:00 -2.8 4 Noroeste 18 Oeste 0 897.4 -0.7 86
2017-12-07 01:00:00 -3 5 Oeste 17 Oeste 0 897.8 -0.4 87
2017-12-07 00:00:00 -2.9 5 Oeste 19 Oeste 0 897.9 -0.4 87
2017-12-06 23:00:00 -2.9 3 Oeste 18 Oeste 0 898.1 -0.1 86
2017-12-06 22:00:00 -3 6 Oeste 18 Oeste 0 898.2 -0.1 91
2017-12-06 21:00:00 -3.1 7 Oeste 18 Oeste 0 898.3 0.1 91
2017-12-06 20:00:00 -2.9 5 Noroeste 16 Oeste 0 898.2 0.1 92
2017-12-06 19:00:00 -3 3 Norte 16 Oeste 0 898.3 0.3 90
2017-12-06 18:00:00 -2 3 Norte 14 Sudoeste 0 898.2 -0.1 85
2017-12-06 17:00:00 1.1 3 Nordeste 16 Sudoeste 0 898.1 -0.4 70
2017-12-06 16:00:00 3.5 4 Este 15 Sur 0 898 -0.9 60
2017-12-06 15:00:00 4.8 4 Nordeste 10 Nordeste 0 898.3 -1.3 51
2017-12-06 14:00:00 6 4 Nordeste 8 Este 0 898.5 -1.2 45
2017-12-06 13:00:00 5.9 4 Sudeste 14 Sudoeste 0 898.9 -0.7 39
2017-12-06 12:00:00 6.2 8 Sur 15 Sudoeste 0 899.6 0.1 42
2017-12-06 11:00:00 3.6 4 Oeste 17 Oeste 0 899.7 0.4 36
2017-12-06 10:00:00 -0.2 7 Oeste 19 Oeste 0 899.6 0.2 43
2017-12-06 09:00:00 -2.3 5 Noroeste 15 Noroeste 0 899.5 0 49
2017-12-06 08:00:00 -2.6 7 Noroeste 13 Noroeste 0 899.3 -0.4 52
2017-12-06 07:00:00 -2.4 6 Noroeste 14 Oeste 0 899.4 -0.6 50
2017-12-06 06:00:00 -1.7 7 Noroeste 12 Oeste 0 899.5 -0.5 48
2017-12-06 05:00:00 -2.1 6 Noroeste 13 Noroeste 0 899.7 -0.6 49
2017-12-06 04:00:00 -1.6 9 Noroeste 16 Noroeste 0 900 -0.7 51
2017-12-06 03:00:00 -1.5 10 Noroeste 17 Noroeste 0 900 -0.9 54
2017-12-06 02:00:00 -0.9 9 Noroeste 15 Noroeste 0 900.3 -0.7 50
2017-12-06 01:00:00 -1.1 7 Noroeste 11 Noroeste 0 900.7 -0.4 54
2017-12-06 00:00:00 -1.4 6 Noroeste 13 Noroeste 0 900.9 -0.2 60
2017-12-05 23:00:00 -1.6 6 Noroeste 14 Oeste 0 901 -0.2 66
2017-12-05 22:00:00 -1 6 Noroeste 12 Oeste 0 901.1 0 65
2017-12-05 21:00:00 -0.2 9 Noroeste 13 Noroeste 0 901.1 0.1 67
2017-12-05 20:00:00 -0.2 6 Oeste 11 Noroeste 0 901.2 0.3 75
2017-12-05 19:00:00 0.8 5 Noroeste 10 Noroeste 0 901.1 0.3 72
2017-12-05 18:00:00 2.3 5 Noroeste 14 Oeste 0.2 901 0 64
2017-12-05 17:00:00 8.5 3 Sudoeste 4 Sudoeste 0 900.9 -0.6 45
2017-12-05 16:00:00 8.7 2 Sudeste 10 Oeste 0.4 900.8 -1.1 48
2017-12-05 15:00:00 7.7 3 Sudeste 10 Sur 0.6 901 -1.3 49
2017-12-05 14:00:00 6.8 5 Sudeste 19 Sur 0.6 901.5 -0.9 52
2017-12-05 13:00:00 7 2 Sur 16 Sudoeste 0.2 901.9 -0.3 52
2017-12-05 12:00:00 4.9 4 Este 19 Oeste 0.2 902.3 0.3 60
2017-12-05 11:00:00 0.4 5 Noroeste 18 Oeste 0 902.4 0.6 74
2017-12-05 10:00:00 -2 6 Noroeste 14 Oeste 0 902.2 0.4 82
2017-12-05 09:00:00 -4.2 8 Noroeste 15 Noroeste 0 902 0.1 89
2017-12-05 08:00:00 -4.1 8 Noroeste 19 Noroeste 0 901.8 -0.2 93
2017-12-05 07:00:00 -4.1 9 Noroeste 17 Oeste 0 901.8 -0.6 94
2017-12-05 06:00:00 -3.7 9 Noroeste 23 Noroeste 0 901.9 -0.6 95
2017-12-05 05:00:00 -3.2 10 Noroeste 19 Oeste 0 902 -0.7 96
2017-12-05 04:00:00 -2.3 6 Noroeste 17 Oeste 0 902.4 -0.5 96
2017-12-05 03:00:00 -1.8 6 Noroeste 14 Noroeste 0 902.5 -0.6 95
2017-12-05 02:00:00 -1.5 4 Noroeste 15 Oeste 0 902.7 -0.3 95
2017-12-05 01:00:00 -1.2 5 Noroeste 17 Oeste 0 902.9 0 95
2017-12-05 00:00:00 -1.4 7 Noroeste 18 Oeste 0 903.1 0.3 95
2017-12-04 23:00:00 -1.6 5 Noroeste 18 Oeste 0 903 0.2 95
2017-12-04 22:00:00 -1.9 3 Oeste 11 Oeste 0 902.9 0.4 95
2017-12-04 21:00:00 -1.2 3 Noroeste 8 Noroeste 0 902.8 0.8 94
2017-12-04 20:00:00 -1.1 4 Noroeste 6 Oeste 0 902.8 0.9 92
2017-12-04 19:00:00 0 0 Calma 8 Sur 0.2 902.5 0.9 89
2017-12-04 18:00:00 1.5 2 Sudoeste 8 Oeste 0 902 0.4 87
2017-12-04 17:00:00 5 3 Sur 14 Sudoeste 0.6 901.9 0 72
2017-12-04 16:00:00 5.5 6 Este 12 Este 0.6 901.6 -0.4 69
2017-12-04 15:00:00 7.5 5 Sur 19 Sudoeste 1 901.6 -0.8 55
2017-12-04 14:00:00 6.4 6 Sudeste 11 Sur 1 901.9 -0.2 58
2017-12-04 13:00:00 6.6 8 Sudeste 17 Sudoeste 0.8 902 0.4 54
2017-12-04 12:00:00 7.5 6 Sur 19 Sudoeste 0.6 902.4 1.2 56
2017-12-04 11:00:00 4 4 Oeste 15 Oeste 0 902.1 1.5 65
2017-12-04 10:00:00 0.7 6 Noroeste 19 Oeste 0 901.6 1.6 77
2017-12-04 09:00:00 -1.6 5 Noroeste 18 Oeste 0 901.2 1.5 86
2017-12-04 08:00:00 -1.8 6 Noroeste 14 Oeste 0 900.6 0.7 85
2017-12-04 07:00:00 -1.6 9 Noroeste 19 Oeste 0.2 900 0.1 83
2017-12-04 06:00:00 -2.4 6 Oeste 17 Oeste 0 899.7 0 86
2017-12-04 05:00:00 -2.6 4 Norte 19 Oeste 0 899.9 0.5 88
2017-12-04 04:00:00 -1.7 11 Noroeste 20 Noroeste 0 899.9 0.4 85
2017-12-04 03:00:00 -2.2 6 Noroeste 18 Oeste 0.2 899.7 0.6 90
2017-12-04 02:00:00 -2.3 6 Oeste 14 Oeste 0 899.4 0.6 89
2017-12-04 01:00:00 -1.8 5 Oeste 19 Oeste 0.2 899.5 1 90
2017-12-04 00:00:00 -1.3 8 Nordeste 15 Oeste 0.2 899.1 0.7 89
2017-12-03 23:00:00 -1.1 6 Noroeste 14 Oeste 0.2 898.8 0.5 82
2017-12-03 22:00:00 -0.6 5 Noroeste 20 Oeste 0 898.5 0.6 82
2017-12-03 21:00:00 -0.4 4 Noroeste 10 Oeste 0.2 898.4 0.6 83
2017-12-03 20:00:00 -0.8 4 Noroeste 17 Sudoeste 0.2 898.3 0.7 86
2017-12-03 19:00:00 -0.1 5 Noroeste 10 Norte 0.2 897.9 0.5 81
2017-12-03 18:00:00 1.3 5 Norte 10 Oeste 0.6 897.8 0.6 73
2017-12-03 17:00:00 2.5 3 Noroeste 10 Oeste 1 897.6 0.2 70
2017-12-03 16:00:00 3.6 6 Norte 15 Nordeste 1.4 897.4 -0.2 70
2017-12-03 15:00:00 4 5 Norte 17 Norte 0.2 897.2 -0.9 66
2017-12-03 14:00:00 2.9 9 Norte 20 Norte 0 897.4 -0.2 66
2017-12-03 13:00:00 2.3 6 Noroeste 28 Norte 0 897.6 0.6 69
2017-12-03 12:00:00 1.7 14 Norte 33 Norte 0.6 898.1 1.7 73
2017-12-03 11:00:00 0.9 4 Oeste 19 Sur 0.4 897.6 1.6 79
2017-12-03 10:00:00 0.5 8 Sudoeste 21 Sur 0.2 897 1.6 80
2017-12-03 09:00:00 -1.3 6 Oeste 26 Norte 0.2 896.4 1.4 89
2017-12-03 08:00:00 -0.9 12 Norte 24 Noroeste 0.2 896 1.1 86
2017-12-03 07:00:00 -1 12 Norte 26 Norte 0.2 895.4 0.3 85
2017-12-03 06:00:00 -1.2 11 Noroeste 28 Norte 0.2 895 -0.2 85
2017-12-03 05:00:00 -1.5 15 Noroeste 25 Norte 0.4 894.9 0 81
2017-12-03 04:00:00 -1.9 7 Noroeste 23 Oeste 0.2 895.1 0.5 78
2017-12-03 03:00:00 -1.4 6 Noroeste 30 Norte 0.4 895.2 0.8 84
2017-12-03 02:00:00 -1.4 8 Norte 28 Norte 0.2 894.9 1.1 88
2017-12-03 01:00:00 -1.3 8 Norte 31 Nordeste 0.4 894.6 1.3 91
2017-12-03 00:00:00 -1.4 6 Norte 34 Norte 0.2 894.4 0.9 92
2017-12-02 23:00:00 -1 12 Norte 26 Nordeste 0.4 893.8 0.7 93
2017-12-02 22:00:00 -1.2 10 Noroeste 33 Norte 0.2 893.3 0.7 91
2017-12-02 21:00:00 -0.9 7 Norte 27 Norte 0.2 893.5 1.5 91
2017-12-02 20:00:00 -0.8 3 Norte 19 Norte 0.4 893.1 1.2 92
2017-12-02 19:00:00 -0.9 8 Norte 23 Noroeste 0.4 892.6 1 92
2017-12-02 18:00:00 -0.8 14 Norte 36 Norte 0.6 892 0.4 84
2017-12-02 17:00:00 -0.4 12 Noroeste 34 Norte 0.4 891.9 0.2 84
2017-12-02 16:00:00 0 8 Norte 22 Noroeste 0.2 891.6 -0.7 86
2017-12-02 15:00:00 0 8 Oeste 21 Oeste 0 891.6 -0.7 88
2017-12-02 14:00:00 0.2 8 Noroeste 41 Oeste 0 891.7 -0.7 82
2017-12-02 13:00:00 0.2 11 Noroeste 37 Norte 0 892.3 0.4 82
2017-12-02 12:00:00 0.1 14 Norte 38 Norte 0 892.3 1 80
2017-12-02 11:00:00 -1 6 Oeste 20 Oeste 0.2 892.4 1.5 91
2017-12-02 10:00:00 -1.3 9 Norte 32 Norte 0 891.9 1.1 91
2017-12-02 09:00:00 -1.6 7 Sudoeste 18 Noroeste 0.6 891.3 0.7 92
2017-12-02 08:00:00 -1.5 6 Noroeste 33 Norte 0.4 890.9 0.3 89
2017-12-02 07:00:00 -1.4 5 Sudeste 34 Norte 0.2 890.8 0.1 90
2017-12-02 06:00:00 -1.2 9 Norte 29 Noroeste 0.4 890.6 0.2 88
2017-12-02 05:00:00 -1.5 11 Noroeste 26 Norte 0.2 890.6 0 83
2017-12-02 04:00:00 -2.1 5 Oeste 21 Sur 0.2 890.7 0 86
2017-12-02 03:00:00 -2.6 7 Sudoeste 29 Norte 0 890.4 -0.1 83
2017-12-02 02:00:00 -2.2 6 Sudoeste 35 Norte 0.8 890.6 -0.1 87
2017-12-02 01:00:00 -2.5 12 Noroeste 35 Noroeste 0 890.7 0.4 84
2017-12-02 00:00:00 -2.8 19 Norte 40 Norte 0.4 890.5 0.5 89
2017-12-01 23:00:00 -2.6 8 Noroeste 35 Noroeste 0.6 890.7 1.2 92
2017-12-01 22:00:00 -2.4 19 Norte 38 Norte 0.8 890.3 1.3 92
2017-12-01 21:00:00 -2.4 11 Norte 48 Norte 0 890 1.1 94
2017-12-01 20:00:00 -2.7 16 Norte 39 Norte 0 889.5 0.9 92
2017-12-01 19:00:00 -2.6 15 Norte 41 Norte 0 889 1.1 90
2017-12-01 18:00:00 -2.9 13 Norte 33 Noroeste 0 888.9 1.4 84
2017-12-01 17:00:00 -2.4 12 Norte 48 Norte 0 888.6 1.2 87
2017-12-01 16:00:00 -2.2 11 Noroeste 45 Norte 0 887.9 0.8 88
2017-12-01 15:00:00 -1.4 21 Norte 43 Norte 0 887.5 0.9 82
2017-12-01 14:00:00 -1.1 6 Noroeste 36 Noroeste 0 887.4 1.3 88
2017-12-01 13:00:00 -0.8 15 Norte 41 Norte 0 887.1 1.8 85
2017-12-01 12:00:00 -0.7 15 Norte 40 Norte 0 886.6 2.1 90
2017-12-01 11:00:00 -0.7 13 Norte 31 Noroeste 0 886.1 1.8 95
2017-12-01 10:00:00 -0.4 10 Norte 29 Noroeste 0 885.3 0.8 95
2017-12-01 09:00:00 -0.8 6 Noroeste 19 Noroeste 0.2 884.5 -0.6 95
2017-12-01 08:00:00 -1.5 5 Oeste 18 Oeste 0.2 884.3 -1.2 95
2017-12-01 07:00:00 -2.1 2 Norte 17 Oeste 0 884.5 -2.1 94
2017-12-01 06:00:00 -2.8 5 Norte 18 Oeste 0 885.1 -1.7 93
2017-12-01 05:00:00 -2.1 6 Noroeste 19 Oeste 0 885.5 -1.4 94
2017-12-01 04:00:00 -1.7 6 Noroeste 18 Oeste 0 886.6 -0.8 93
2017-12-01 03:00:00 -1.7 5 Oeste 17 Oeste 0 886.8 -0.6 91
2017-12-01 02:00:00 -1.7 3 Oeste 18 Oeste 0 886.9 -0.7 90
2017-12-01 01:00:00 -2.3 3 Norte 18 Sur 0 887.4 -0.2 88
2017-12-01 00:00:00 -2.5 6 Sudoeste 18 Sudoeste 0 887.4 -0.3 88
2017-11-30 23:00:00 -2.1 4 Nordeste 15 Oeste 0 887.6 0 88
2017-11-30 22:00:00 -1.7 7 Norte 16 Oeste 0 887.6 0.1 84
2017-11-30 21:00:00 -1.6 5 Oeste 21 Oeste 0 887.7 0.3 80
2017-11-30 20:00:00 -1.5 4 Noroeste 18 Sudoeste 0 887.6 0.8 80
2017-11-30 19:00:00 -0.8 8 Norte 19 Norte 0 887.5 0.8 79
2017-11-30 18:00:00 0.3 3 Noroeste 19 Sudoeste 0 887.4 1 71
2017-11-30 17:00:00 3.8 5 Sudoeste 22 Sudoeste 0 886.8 0.2 61
2017-11-30 16:00:00 1.6 11 Norte 26 Norte 0 886.7 0.2 70
2017-11-30 15:00:00 5.1 4 Sudeste 19 Norte 0 886.4 -0.3 60
2017-11-30 14:00:00 3.5 6 Nordeste 17 Nordeste 0 886.6 0.1 64
2017-11-30 13:00:00 4 8 Nordeste 21 Nordeste 0 886.5 0.3 59
2017-11-30 12:00:00 4.3 10 Norte 23 Norte 0 886.7 1.3 59
2017-11-30 11:00:00 2.7 8 Norte 29 Norte 0 886.5 1.6 63
2017-11-30 10:00:00 0 10 Norte 31 Norte 0 886.2 1.8 74
2017-11-30 09:00:00 -1.8 6 Noroeste 24 Noroeste 0 885.4 0.8 78
2017-11-30 08:00:00 -2.1 12 Noroeste 23 Noroeste 0 884.9 0.7 77
2017-11-30 07:00:00 -2.4 6 Oeste 27 Noroeste 0 884.4 0.3 71
2017-11-30 06:00:00 -1.8 14 Noroeste 32 Noroeste 0 884.6 0.7 71
2017-11-30 05:00:00 -1.4 8 Norte 21 Norte 0 884.2 0.4 88
2017-11-30 04:00:00 -1.4 7 Noroeste 17 Norte 0 884.1 0.1 84
2017-11-30 03:00:00 -2.1 8 Norte 17 Norte 0 883.9 0.2 86
2017-11-30 02:00:00 -2.5 7 Norte 17 Oeste 0 883.8 0.5 87
2017-11-30 01:00:00 -2.3 4 Noroeste 19 Oeste 0 884 1 88
2017-11-30 00:00:00 -2.4 7 Noroeste 13 Norte 0 883.7 1.3 84
2017-11-29 23:00:00 -1.7 8 Noroeste 20 Norte 0 883.3 1.2 84
2017-11-29 22:00:00 -1.4 10 Norte 28 Norte 0 883 1.6 81
2017-11-29 21:00:00 -2.4 8 Norte 20 Nordeste 0 882.4 1.6 85
2017-11-29 20:00:00 -1.1 5 Norte 35 Norte 0 882.1 1.7 74
2017-11-29 19:00:00 -0.3 13 Norte 32 Norte 0 881.4 1.5 74
2017-11-29 18:00:00 -0.3 17 Norte 32 Norte 0 880.8 0.9 74
2017-11-29 17:00:00 0.6 9 Norte 27 Norte 0 880.4 1 72
2017-11-29 16:00:00 2.1 15 Norte 33 Norte 0 879.9 0.2 68
2017-11-29 15:00:00 3.5 21 Norte 37 Norte 0 879.9 -0.3 63
2017-11-29 14:00:00 5.6 10 Norte 24 Norte 0 879.4 -0.8 50
2017-11-29 13:00:00 3.9 9 Norte 30 Norte 0 879.7 -0.1 65
2017-11-29 12:00:00 3.8 12 Norte 31 Norte 0 880.2 0.7 64
2017-11-29 11:00:00 2.1 7 Norte 20 Norte 0 880.2 0.9 77
2017-11-29 10:00:00 0.3 4 Oeste 19 Oeste 0 879.8 0.7 80
2017-11-29 09:00:00 -1.7 5 Noroeste 20 Oeste -- 879.5 0.2 86
2017-11-29 08:00:00 -2.3 6 Noroeste 19 Oeste -- 879.3 -0.1 86
2017-11-29 07:00:00 -1.5 6 Noroeste 18 Oeste -- 879.1 -0.7 86
2017-11-29 06:00:00 -1.9 6 Oeste 21 Oeste -- 879.3 -0.9 89
2017-11-29 05:00:00 -1.1 5 Noroeste 16 Noroeste -- 879.4 -1.3 89
2017-11-29 04:00:00 -0.5 9 Noroeste 19 Oeste -- 879.8 -1.6 88
2017-11-29 03:00:00 -0.8 5 Noroeste 16 Oeste -- 880.2 -1.5 90
2017-11-29 02:00:00 -0.5 6 Noroeste 14 Norte -- 880.7 -1.4 87
2017-11-29 01:00:00 0.2 7 Noroeste 23 Oeste -- 881.4 -0.8 84
2017-11-29 00:00:00 -0.3 7 Noroeste 21 Oeste -- 881.7 -0.8 87
2017-11-28 23:00:00 -0.8 6 Noroeste 20 Oeste -- 882.1 -0.7 83
2017-11-28 22:00:00 -0.8 7 Oeste 21 Oeste -- 882.2 -0.9 86
2017-11-28 21:00:00 -0.8 4 Noroeste 18 Oeste -- 882.5 -1 83
2017-11-28 20:00:00 -0.5 2 Oeste 19 Oeste -- 882.8 -1.1 84
2017-11-28 19:00:00 -0.2 5 Noroeste 18 Oeste -- 883.1 -0.7 85
2017-11-28 18:00:00 0.7 3 Nordeste 8 Este -- 883.5 -0.7 78
2017-11-28 17:00:00 4.5 4 Este 13 Sur -- 883.9 -0.9 65
2017-11-28 16:00:00 6 6 Sudeste 13 Sur -- 883.8 -2.1 57
2017-11-28 15:00:00 6.6 6 Este 15 Sudeste -- 884.2 -2.6 58
2017-11-28 14:00:00 6.5 7 Este 18 Este -- 884.8 -2.7 58
2017-11-28 13:00:00 6.2 8 Sudeste -- -- -- 885.9 -1.9 57
2017-11-28 12:00:00 5.8 6 Este 20 Sur -- 886.8 -1.1 52
2017-11-28 11:00:00 2.5 3 Oeste 18 Oeste -- 887.5 -0.6 59
2017-11-28 10:00:00 -0.7 6 Oeste 19 Oeste -- 887.8 -0.2 65
2017-11-28 09:00:00 -3.4 6 Noroeste 18 Oeste -- 887.9 -0.5 74
2017-11-28 08:00:00 -3.6 4 Oeste 18 Oeste -- 888.1 -0.8 72
2017-11-28 07:00:00 -2.9 8 Noroeste 19 Oeste -- 888 -1.3 72
2017-11-28 06:00:00 -3.6 7 Noroeste 18 Oeste -- 888.4 -1.4 79
2017-11-28 05:00:00 -3.8 4 Noroeste 18 Oeste -- 888.9 -1.2 81
2017-11-28 04:00:00 -2.9 5 Noroeste 18 Oeste -- 889.3 -1.6 77
2017-11-28 03:00:00 -3 7 Oeste 19 Oeste -- 889.8 -1.4 79
2017-11-28 02:00:00 -2.7 6 Oeste 18 Oeste -- 890.1 -1.3 79
2017-11-28 01:00:00 -1.9 4 Oeste 17 Oeste -- 890.9 -0.7 74
2017-11-28 00:00:00 -1.4 8 Oeste 21 Oeste -- 891.2 -0.9 74
2017-11-27 23:00:00 -0.4 5 Oeste 14 Oeste -- 891.4 -0.9 68
2017-11-27 22:00:00 0.7 4 Noroeste 11 Oeste -- 891.6 -0.8 64
2017-11-27 21:00:00 1.1 5 Norte 14 Oeste -- 892.1 -0.2 64
2017-11-27 20:00:00 1.9 2 Oeste 14 Norte -- 892.3 -0.2 62
2017-11-27 19:00:00 3.4 7 Norte 15 Sudoeste -- 892.4 -0.3 55
2017-11-27 18:00:00 7.4 8 Sur 18 Sur -- 892.3 -0.8 32
2017-11-27 17:00:00 12.4 8 Sudoeste 18 Oeste -- 892.5 -1.5 22
2017-11-27 16:00:00 12.7 9 Sudoeste -- -- -- 892.7 -2.2 25
2017-11-27 15:00:00 12.2 13 Sur 22 Sur -- 893.1 -2.7 27
2017-11-27 14:00:00 9.3 7 Nordeste 14 Sur -- 894 -2 48
2017-11-27 13:00:00 7.6 5 Nordeste 12 Sur -- 894.9 -1.2 54
2017-11-27 12:00:00 4.7 3 Nordeste 18 Sudoeste -- 895.8 -0.2 60
2017-11-27 11:00:00 3 5 Sudoeste 19 Oeste -- 896 -0.2 64
2017-11-27 10:00:00 -0.8 5 Noroeste 14 Oeste -- 896.1 0.1 71
2017-11-27 09:00:00 -2.8 6 Noroeste 16 Oeste -- 896 0.2 86
2017-11-27 08:00:00 -3.9 5 Noroeste 16 Oeste -- 896.2 -0.2 91
2017-11-27 07:00:00 -3.6 6 Oeste 19 Oeste -- 896 -0.9 90
2017-11-27 06:00:00 -2.7 10 Noroeste 17 Oeste -- 895.8 -1.3 93
2017-11-27 05:00:00 -2.8 6 Noroeste 19 Oeste -- 896.4 -1 93
2017-11-27 04:00:00 -3 3 Noroeste 16 Oeste -- 896.9 -1 93
2017-11-27 03:00:00 -2.6 6 Noroeste 13 Norte -- 897.1 -0.8 94
2017-11-27 02:00:00 -2.4 6 Noroeste 17 Oeste -- 897.4 -0.5 93
2017-11-27 01:00:00 -1.9 7 Noroeste 19 Oeste -- 897.9 -0.2 94
2017-11-27 00:00:00 -2.1 6 Noroeste 18 Oeste -- 897.9 -0.4 93
2017-11-26 23:00:00 -1.4 4 Noroeste 13 Oeste -- 897.9 -0.8 93
2017-11-26 22:00:00 -1.2 6 Oeste 19 Oeste -- 898.1 -0.6 92
2017-11-26 21:00:00 -1.2 7 Oeste 17 Oeste -- 898.3 0.1 91
2017-11-26 20:00:00 -0.3 2 Este 8 Noroeste -- 898.7 0.8 88
2017-11-26 19:00:00 0.9 3 Sudoeste 12 Sudeste -- 898.7 0.9 83
2017-11-26 18:00:00 2.7 8 Sudeste 15 Sur -- 898.2 0.4 75
2017-11-26 17:00:00 6.6 8 Sudeste 15 Sudeste -- 897.9 -0.9 59
2017-11-26 16:00:00 8.3 6 Este 16 Este -- 897.8 -1.1 52
2017-11-26 15:00:00 9 7 Este 14 Sudeste -- 897.8 -1.6 46
2017-11-26 14:00:00 9 3 Sudeste 25 Sudoeste -- 898.8 -0.7 48
2017-11-26 13:00:00 7.4 8 Sudeste 15 Sur -- 898.9 -0.2 56
2017-11-26 12:00:00 6.8 6 Sudeste 24 Sudoeste -- 899.4 1.2 54
2017-11-26 11:00:00 4.2 8 Sur 21 Sur -- 899.5 1.8 59
2017-11-26 10:00:00 1.4 5 Oeste 18 Oeste -- 899.1 1.7 67
2017-11-26 09:00:00 -1.8 6 Noroeste 20 Oeste -- 898.2 1.3 77
2017-11-26 08:00:00 -2.6 4 Oeste 19 Norte -- 897.7 0.9 82
2017-11-26 07:00:00 -2.2 7 Noroeste 20 Oeste -- 897.4 0.3 80
2017-11-26 06:00:00 -1.5 3 Noroeste 18 Oeste -- 896.9 0.1 75
2017-11-26 05:00:00 -0.8 5 Noroeste 18 Norte -- 896.8 0.6 77
2017-11-26 04:00:00 -0.1 10 Norte 27 Norte -- 897.1 0.7 78
2017-11-26 03:00:00 -0.1 8 Norte 27 Norte -- 896.8 0.5 80
2017-11-26 02:00:00 -0.5 12 Norte 25 Norte -- 896.2 -0.2 84
2017-11-26 01:00:00 -0.4 9 Norte 30 Norte -- 896.4 0.2 81
2017-11-26 00:00:00 0 13 Norte 27 Norte -- 896.3 0.5 83
2017-11-25 23:00:00 -0.9 5 Oeste 18 Oeste -- 896.4 1.1 87
2017-11-25 22:00:00 -0.5 8 Norte 17 Norte -- 896.2 1.3 86
2017-11-25 21:00:00 -0.9 3 Noroeste 17 Norte -- 895.8 1.5 86
2017-11-25 20:00:00 0 10 Norte 18 Noroeste -- 895.3 1.6 86
2017-11-25 19:00:00 0.4 5 Norte 10 Sudoeste -- 894.9 1.6 88
2017-11-25 18:00:00 1.3 3 Noroeste 21 Norte -- 894.3 1.5 86
2017-11-25 17:00:00 2.4 10 Norte 28 Norte -- 893.7 0.7 84
2017-11-25 16:00:00 3.7 12 Norte 34 Norte -- 893.3 0.4 76
2017-11-25 15:00:00 5.8 12 Norte 31 Norte -- 892.8 -0.3 70
2017-11-25 14:00:00 6.6 16 Norte 32 Norte -- 893 0.6 66
2017-11-25 13:00:00 6.5 14 Norte 35 Noroeste -- 892.9 0.8 69
2017-11-25 12:00:00 5.9 14 Norte 27 Norte -- 893.1 1.9 73
2017-11-25 11:00:00 5.6 12 Noroeste 29 Norte -- 892.4 2.1 79
2017-11-25 10:00:00 5 9 Noroeste 25 Norte -- 892.1 2.5 82
2017-11-25 09:00:00 3.4 11 Noroeste 28 Norte -- 891.2 2.3 88
2017-11-25 08:00:00 3.3 12 Norte 29 Norte -- 890.3 1.9 90
2017-11-25 07:00:00 4.4 10 Noroeste 22 Norte -- 889.6 1.2 89
2017-11-25 06:00:00 4.5 8 Norte 16 Oeste -- 888.9 1 91
2017-11-25 05:00:00 4.9 7 Noroeste 16 Oeste -- 888.4 0.9 91
2017-11-25 04:00:00 5.3 8 Norte 16 Oeste -- 888.4 1.5 91
2017-11-25 03:00:00 5.5 7 Norte 19 Norte -- 887.9 1.3 91
2017-11-25 02:00:00 6.2 7 Norte 19 Oeste -- 887.5 1 90
2017-11-25 01:00:00 7 7 Norte 18 Noroeste -- 886.9 0.5 92
2017-11-25 00:00:00 7.7 6 Noroeste 19 Oeste -- 886.6 0.1 92
2017-11-24 23:00:00 8.2 3 Norte 23 Oeste -- 886.5 -0.2 92
2017-11-24 22:00:00 8.8 10 Sudoeste 44 Oeste -- 886.4 -0.2 89
2017-11-24 21:00:00 8.8 13 Sudoeste 34 Sur -- 886.5 -0.1 90
2017-11-24 20:00:00 9.1 17 Sudoeste 37 Sudoeste -- 886.7 0.1 86
2017-11-24 19:00:00 8.8 13 Sudoeste 33 Sur -- 886.6 0 87
2017-11-24 18:00:00 9.1 11 Sudoeste 31 Sur -- 886.6 -0.5 90
2017-11-24 17:00:00 9.3 17 Sudoeste 37 Sudoeste -- 886.6 -0.6 89
2017-11-24 16:00:00 10 8 Sudoeste 24 Sur -- 886.6 -0.9 86
2017-11-24 15:00:00 10.9 9 Sudoeste 25 Sudoeste -- 887.1 -0.8 81
2017-11-24 14:00:00 11.2 13 Sudoeste 25 Sudoeste -- 887.2 -0.5 81
2017-11-24 13:00:00 9.3 9 Oeste 24 Sur -- 887.5 0 91
2017-11-24 12:00:00 8.2 7 Nordeste 18 Nordeste -- 887.9 0.7 94
2017-11-24 11:00:00 7.7 6 Nordeste 15 Nordeste -- 887.7 0.7 94
2017-11-24 10:00:00 6.9 8 Nordeste 16 Oeste -- 887.5 0.9 94
2017-11-24 09:00:00 6.5 6 Nordeste 16 Oeste -- 887.2 0.8 94
2017-11-24 08:00:00 6.4 6 Norte 17 Oeste -- 887 0.4 93
2017-11-24 07:00:00 6.5 6 Norte 24 Sur -- 886.6 -0.2 93
2017-11-24 06:00:00 6.5 11 Este 20 Oeste -- 886.4 -0.7 92
2017-11-24 05:00:00 6.8 9 Sur 28 Oeste -- 886.6 -0.7 89
2017-11-24 04:00:00 6.8 11 Sudoeste 27 Noroeste -- 886.8 -0.6 84
2017-11-24 03:00:00 7.3 12 Sudoeste 40 Sur -- 887.1 -0.1 76
2017-11-24 02:00:00 9.5 14 Sudoeste 43 Sudoeste -- 887.3 -0.1 56
2017-11-24 01:00:00 10.1 21 Sudoeste 45 Sur -- 887.4 -0.4 56
2017-11-24 00:00:00 10.6 21 Sudoeste 61 Oeste 0 887.2 -0.3 57
2017-11-23 23:00:00 10.2 18 Sudoeste 44 Sudoeste 0 887.4 0.2 65
2017-11-23 22:00:00 10 13 Sudoeste 44 Sudoeste 0 887.8 0.8 73
2017-11-23 21:00:00 9.9 12 Sur 28 Sur 0 887.5 1 72
2017-11-23 20:00:00 10 7 Oeste 36 Oeste 0 887.2 1 74
2017-11-23 19:00:00 10.3 18 Sudoeste 51 Sudoeste 0 887 1.1 73
2017-11-23 18:00:00 10.3 26 Sudoeste 50 Sudoeste 0 886.5 0.9 81
2017-11-23 17:00:00 10 21 Sudoeste 56 Sur 0 886.2 0.3 88
2017-11-23 16:00:00 11.4 15 Sudoeste 44 Oeste 0 885.9 -0.2 72
2017-11-23 15:00:00 13.1 17 Sudoeste 41 Sudoeste 0 885.6 -0.9 61
2017-11-23 14:00:00 13.6 15 Sudoeste 33 Oeste 0 885.9 -0.1 56
2017-11-23 13:00:00 9.3 8 Este 22 Oeste 0 886.1 0.8 78
2017-11-23 12:00:00 8.4 12 Sudoeste 35 Oeste 0 886.5 2.1 80
2017-11-23 11:00:00 7.9 12 Oeste 38 Sudoeste 0 886 2.4 82
2017-11-23 10:00:00 7.9 14 Sudoeste 34 Sudoeste 0 885.3 2.3 80
2017-11-23 09:00:00 7.9 14 Sudoeste 39 Oeste 0 884.4 1.9 78
2017-11-23 08:00:00 7.8 12 Sudoeste 45 Sudoeste 0 883.6 1.6 76
2017-11-23 07:00:00 7.2 12 Sudoeste 44 Sur 0 883 1.2 75
2017-11-23 06:00:00 6.9 20 Sudoeste 44 Sudoeste 0 882.5 0.7 76
2017-11-23 05:00:00 7.9 21 Sudoeste 55 Sudoeste 0 882 0.8 68
2017-11-23 04:00:00 9.3 23 Sudoeste 50 Sudoeste 0 881.8 0.4 51
2017-11-23 03:00:00 8.7 24 Sudoeste 51 Sudoeste 0 881.8 1.1 55
2017-11-23 02:00:00 8.8 29 Sudoeste 69 Oeste 0 881.2 0.2 53
2017-11-23 01:00:00 9.2 33 Sudoeste 76 Sur 0 881.4 0.3 49
2017-11-23 00:00:00 9.3 42 Sudoeste 71 Sudoeste 0 880.7 -0.6 48
2017-11-22 23:00:00 9.4 34 Sudoeste 76 Sudoeste 0 881 -0.2 46
2017-11-22 22:00:00 9.7 32 Sudoeste 68 Sudoeste 0 881.1 -0.7 42
2017-11-22 21:00:00 10.2 15 Sudoeste 43 Oeste 0 881.3 -0.4 40
2017-11-22 20:00:00 11.2 21 Sudoeste 56 Sudoeste 0 881.2 -1 35
2017-11-22 19:00:00 10.7 14 Sudoeste 48 Sudoeste 0 881.8 -0.5 40
2017-11-22 18:00:00 10.7 19 Sudoeste 48 Sur 0 881.7 -1.1 41
2017-11-22 17:00:00 10.6 13 Sudoeste 37 Sudoeste 0 882.2 -1.2 41
2017-11-22 16:00:00 11.5 17 Sudoeste 45 Sur 0 882.3 -1.4 38
2017-11-22 15:00:00 14 17 Sudoeste 45 Sudoeste 0 882.8 -1.7 31
2017-11-22 14:00:00 14.3 19 Sudoeste 44 Sudoeste 0 883.4 -1.6 32
2017-11-22 13:00:00 14.3 19 Sudoeste 45 Sudoeste 0 883.7 -1.6 32
2017-11-22 12:00:00 14.1 12 Sudoeste 25 Sur 0 884.5 -0.8 31
2017-11-22 11:00:00 10 6 Nordeste 15 Oeste 0 885 -0.3 44
2017-11-22 10:00:00 7.3 8 Nordeste 12 Nordeste 0 885.3 0 50
2017-11-22 09:00:00 5.2 6 Nordeste 15 Sudoeste 0 885.3 -0.2 55
2017-11-22 08:00:00 6 7 Sudoeste 19 Oeste 0 885.3 -0.7 53
2017-11-22 07:00:00 5.9 6 Noroeste 23 Oeste 0 885.3 -1.4 50
2017-11-22 06:00:00 6.2 8 Oeste 23 Oeste 0 885.5 -1.7 49
2017-11-22 05:00:00 6.7 12 Noroeste 21 Oeste 0 886 -1.6 47
2017-11-22 04:00:00 6 11 Oeste 22 Oeste 0 886.7 -1.6 48
2017-11-22 03:00:00 5.7 6 Oeste 20 Oeste 0 887.2 -1.4 48
2017-11-22 02:00:00 6.3 8 Oeste 20 Oeste 0 887.6 -1.2 42
2017-11-22 01:00:00 5.1 9 Oeste 21 Oeste 0 888.3 -0.5 38
2017-11-22 00:00:00 2.6 7 Oeste 19 Oeste 0 888.6 -0.5 47
2017-11-21 23:00:00 2.9 8 Oeste 18 Oeste 0 888.8 -0.5 46
2017-11-21 22:00:00 3.7 5 Sudoeste 16 Oeste 0 888.8 -0.6 47
2017-11-21 21:00:00 4 7 Sur 18 Oeste 0 889.1 -0.1 49
2017-11-21 20:00:00 5.3 4 Noroeste 15 Sudoeste 0 889.3 -0.1 44
2017-11-21 19:00:00 6.9 4 Nordeste 20 Sur 0 889.4 0 39
2017-11-21 18:00:00 10.2 7 Sudoeste 22 Sur 0 889.2 -0.4 29
2017-11-21 17:00:00 14.8 10 Sudoeste 27 Sudoeste 0 889.4 -0.9 20
2017-11-21 16:00:00 17.5 10 Sudoeste 27 Sudoeste 0 889.4 -1.5 15
2017-11-21 15:00:00 17.7 12 Sudoeste 29 Sudoeste 0 889.6 -2.2 15
2017-11-21 14:00:00 17.2 15 Sur 30 Sur 0 890.3 -1.5 16
2017-11-21 13:00:00 16.3 6 Oeste 24 Sur 0 890.9 -0.9 14
2017-11-21 12:00:00 13.5 4 Este 16 Sudoeste 0 891.8 -0.1 28
2017-11-21 11:00:00 10.7 8 Oeste 18 Oeste 0 891.8 0.2 29
2017-11-21 10:00:00 7.7 12 Oeste 18 Oeste 0 891.8 0.3 32
2017-11-21 09:00:00 3.7 6 Noroeste 17 Oeste 0 891.9 0.5 42
2017-11-21 08:00:00 3.1 8 Noroeste 15 Oeste 0 891.6 0.2 46
2017-11-21 07:00:00 2.5 8 Oeste 15 Oeste 0 891.5 -0.2 50
2017-11-21 06:00:00 3.2 7 Noroeste 14 Oeste 0 891.4 -0.6 48
2017-11-21 05:00:00 3.8 8 Noroeste 17 Oeste 0 891.4 -1 45
2017-11-21 04:00:00 3.5 7 Noroeste 15 Oeste 0 891.7 -1 48
2017-11-21 03:00:00 4.5 8 Noroeste 16 Oeste 0 892 -0.9 44
2017-11-21 02:00:00 4.3 10 Noroeste 19 Oeste 0 892.4 -0.4 46
2017-11-21 01:00:00 4.5 9 Noroeste 20 Oeste 0 892.7 -0.2 46
2017-11-21 00:00:00 4.8 10 Noroeste 22 Oeste 0 892.9 -0.1 46
2017-11-20 23:00:00 5.4 10 Noroeste 21 Oeste 0 892.8 0 43
2017-11-20 22:00:00 5.1 11 Oeste 20 Oeste 0 892.9 0.3 44
2017-11-20 21:00:00 6.5 15 Oeste 22 Oeste 0 893 0.9 39
2017-11-20 20:00:00 6.7 15 Oeste 20 Oeste 0 892.8 0.9 38
2017-11-20 19:00:00 8 2 Noroeste 15 Sudoeste 0 892.6 0.8 35
2017-11-20 18:00:00 10.2 6 Este 14 Este 0 892.1 0.1 30
2017-11-20 17:00:00 15.4 6 Este 15 Nordeste 0 891.9 -0.4 19
2017-11-20 16:00:00 17.4 6 Este 19 Sudeste 0 891.8 -1.2 19
2017-11-20 15:00:00 17.9 9 Sudeste 21 Este 0 892 -1.5 15
2017-11-20 14:00:00 18.5 9 Sur 24 Sur 0 892.3 -1.3 15
2017-11-20 13:00:00 15.9 8 Este 17 Este 0 893 -0.3 24
2017-11-20 12:00:00 14.1 6 Este 19 Sur 0 893.5 0.5 25
2017-11-20 11:00:00 9.5 10 Oeste 18 Oeste 0 893.6 0.7 32
2017-11-20 10:00:00 8 12 Oeste 17 Oeste 0 893.3 0.5 33
2017-11-20 09:00:00 3.8 10 Noroeste 15 Noroeste 0 893 0.1 41
2017-11-20 08:00:00 2.5 6 Noroeste 15 Noroeste 0 892.9 0.1 47
2017-11-20 07:00:00 3 9 Noroeste 16 Noroeste 0 892.8 -0.2 43
2017-11-20 06:00:00 2.8 10 Noroeste 16 Oeste 0 892.9 -0.5 44
2017-11-20 05:00:00 3 9 Noroeste 18 Noroeste 0 892.8 -0.7 42
2017-11-20 04:00:00 3.1 10 Noroeste 17 Oeste 0 893 -1.1 42
2017-11-20 03:00:00 3.7 11 Noroeste 17 Oeste 0 893.4 -0.7 40
2017-11-20 02:00:00 3.7 11 Noroeste 18 Oeste 0 893.5 -0.2 40
2017-11-20 01:00:00 2.7 9 Noroeste 17 Oeste 0 894.1 0.5 44
2017-11-20 00:00:00 2.5 8 Noroeste 14 Oeste 0 894.1 0.4 45
2017-11-19 23:00:00 3.9 9 Noroeste 18 Noroeste 0 893.7 0.1 40
2017-11-19 22:00:00 4 9 Noroeste 17 Oeste 0 893.6 0.3 40
2017-11-19 21:00:00 4.1 8 Noroeste 19 Oeste 0 893.7 0.7 42
2017-11-19 20:00:00 5.1 12 Oeste 19 Oeste 0 893.6 1.1 35
2017-11-19 19:00:00 6.3 16 Oeste 20 Oeste 0 893.3 0.9 31
2017-11-19 18:00:00 9.2 7 Sudeste 19 Sur 0 893 0.6 28
2017-11-19 17:00:00 13.7 7 Este 15 Este 0 892.5 -0.2 21
2017-11-19 16:00:00 15.2 9 Este 18 Sudeste 0 892.4 -0.6 14
2017-11-19 15:00:00 16.4 8 Este 15 Sudeste 0 892.4 -1.2 13
2017-11-19 14:00:00 15.9 9 Este 16 Este 0 892.7 -0.8 11
2017-11-19 13:00:00 15.5 8 Este 19 Sur 0 893 -0.2 11
2017-11-19 12:00:00 13.1 8 Sudeste 18 Sur 0 893.6 0.8 12
2017-11-19 11:00:00 11.4 10 Sudeste 16 Sur 0 893.5 1.2 11
2017-11-19 10:00:00 6.9 7 Noroeste 16 Oeste 0 893.2 1.3 21
2017-11-19 09:00:00 2.8 5 Noroeste 13 Oeste 0 892.8 0.8 25
2017-11-19 08:00:00 1.2 9 Oeste 15 Oeste 0 892.3 0.5 27
2017-11-19 07:00:00 3 6 Noroeste 19 Oeste 0 891.9 -0.2 23
2017-11-19 06:00:00 4 8 Norte 15 Noroeste 0 892 0 16
2017-11-19 05:00:00 2.8 8 Noroeste 18 Noroeste 0 891.8 -0.3 24
2017-11-19 04:00:00 3.2 10 Noroeste 16 Noroeste 0 892.1 -0.2 23
2017-11-19 03:00:00 2.6 10 Noroeste 16 Noroeste 0 892 -0.5 26
2017-11-19 02:00:00 3 10 Noroeste 16 Noroeste 0 892.1 -0.4 31
2017-11-19 01:00:00 2.6 10 Noroeste 15 Oeste 0 892.3 -0.3 36
2017-11-19 00:00:00 2.6 10 Noroeste 16 Noroeste 0 892.5 -0.2 52
2017-11-18 23:00:00 2.8 7 Noroeste 16 Oeste 0 892.5 0.1 69
2017-11-18 22:00:00 2.8 7 Noroeste 17 Oeste 0 892.6 0.5 62
2017-11-18 21:00:00 3.4 3 Sudeste 14 Sur 0 892.7 0.7 81
2017-11-18 20:00:00 4.5 5 Norte 20 Oeste 0 892.4 0.9 67
2017-11-18 19:00:00 6.4 14 Oeste 20 Oeste 0 892.1 0.8 60
2017-11-18 18:00:00 8.2 8 Sudeste 17 Sur 0 892 0.5 61
2017-11-18 17:00:00 13.4 6 Este 14 Este 0 891.5 -0.3 40
2017-11-18 16:00:00 15.1 6 Este 18 Sur 0 891.3 -1 35
2017-11-18 15:00:00 15.1 7 Este 17 Sudeste 0 891.5 -1.3 38
2017-11-18 14:00:00 15.2 5 Este 15 Sudeste 0 891.8 -1 34
2017-11-18 13:00:00 14.5 5 Este 19 Sur 0 892.3 -0.3 37
2017-11-18 12:00:00 12.6 10 Sudeste 19 Sur 0 892.8 0.5 38
2017-11-18 11:00:00 11.5 6 Sur 16 Oeste 0 892.8 0.9 42
2017-11-18 10:00:00 7.9 9 Noroeste 18 Oeste 0 892.6 0.9 48
2017-11-18 09:00:00 3.8 6 Oeste 15 Oeste 0 892.3 0.7 61
2017-11-18 08:00:00 2.7 4 Oeste 18 Oeste 0 891.9 0 62
2017-11-18 07:00:00 4.2 8 Noroeste 19 Oeste 0 891.7 -0.3 56
2017-11-18 06:00:00 4.8 8 Noroeste 18 Oeste 0 891.6 -0.5 54
2017-11-18 05:00:00 3.9 6 Noroeste 18 Oeste 0 891.9 -0.4 56
2017-11-18 04:00:00 3.6 6 Noroeste 15 Oeste 0 892 -0.5 55
2017-11-18 03:00:00 4 7 Norte 19 Oeste 0 892.1 -0.6 51
2017-11-18 02:00:00 4.3 8 Noroeste 21 Oeste 0 892.3 -0.2 53
2017-11-18 01:00:00 4.2 13 Oeste 18 Oeste 0 892.5 0.1 58
2017-11-18 00:00:00 4.4 10 Noroeste 18 Oeste 0 892.7 0.4 63
2017-11-17 23:00:00 4.9 6 Norte 18 Oeste 0 892.5 0.3 61
2017-11-17 22:00:00 5.9 8 Noroeste 19 Oeste 0 892.4 0.5 58
2017-11-17 21:00:00 5.5 8 Noroeste 20 Oeste 0 892.3 0.6 61
2017-11-17 20:00:00 6.9 8 Noroeste 21 Oeste 0 892.2 0.7 57
2017-11-17 19:00:00 7.8 5 Noroeste 21 Oeste 0 891.9 0.5 51
2017-11-17 18:00:00 9.8 4 Este 14 Sudeste 0 891.7 0.2 46
2017-11-17 17:00:00 12.9 10 Sudeste 17 Sudeste 0 891.5 -0.3 34
2017-11-17 16:00:00 15.5 9 Sudeste 15 Sudeste 0 891.4 -0.8 28
2017-11-17 15:00:00 16.3 9 Este 18 Sudeste 0 891.5 -1.3 28
2017-11-17 14:00:00 16.7 6 Este 16 Sudeste 0 891.8 -1 28
2017-11-17 13:00:00 16.1 9 Este 18 Sur 0 892.2 -0.4 28
2017-11-17 12:00:00 15.2 9 Sudeste 25 Sur 0 892.8 0.3 30
2017-11-17 11:00:00 12.2 4 Oeste 21 Oeste 0 892.8 0.5 36
2017-11-17 10:00:00 8.4 16 Oeste 23 Oeste 0 892.6 0.6 46
2017-11-17 09:00:00 5.2 10 Noroeste 16 Noroeste 0 892.5 0.6 58
2017-11-17 08:00:00 4.7 8 Noroeste 21 Oeste 0 892.3 0.3 58
2017-11-17 07:00:00 5.2 10 Noroeste 21 Oeste 0 892 -0.2 56
2017-11-17 06:00:00 5.4 10 Noroeste 22 Noroeste 0 891.9 -0.4 56
2017-11-17 05:00:00 5.5 10 Noroeste 21 Oeste 0 892 -0.4 55
2017-11-17 04:00:00 5.8 12 Noroeste 23 Noroeste 0 892.2 -0.4 54
2017-11-17 03:00:00 5.7 12 Noroeste 23 Oeste 0 892.3 -0.3 55
2017-11-17 02:00:00 5.7 10 Noroeste 21 Oeste 0 892.4 -0.2 55
2017-11-17 01:00:00 6 12 Noroeste 23 Noroeste 0 892.6 0.2 55
2017-11-17 00:00:00 5.9 12 Noroeste 22 Oeste 0 892.6 0.2 56